Guinda, California
Current Conditions -  °F | °C
As of 11:53 PM on Thursday 23 Oct 2014 (Local Time) from KSMF Reporting Station
Clear Clear  
Wind Chill: 58°   Ceiling: Unl
Heat Index: 58°   Visibility: 10mi
Dew Point: 53°   Wind: 8mph
Humidity: 84%   Direction: 330°NNW
Pressure: 30"   Gusts: NA
Location:  38.83°N, 122.2°W
Report Text: KSMF 240653Z 33007KT 10SM CLR 14/12 A3000 RMK AO2 SLP158 T01440117
Loading
Personal Weather Stations






























Interactive Weather Map New forecast layout! Learn more

10-Day Weather Forecast

Advertisements
Track Severe Weather on mobile